Time;durP1;ratioP1;P1;durP2;ratioP2;P2;SDS_P1;SDS_P2;PMS_P1;PMS_P2;Temp;Humidity;BMP_temperature;BMP_pressure;BME280_temperature;BME280_humidity;BME280_pressure;Samples;Min_cycle;Max_cycle;Signal;HPM_P1;HPM_P2
2022/11/07 00:01:33;;;;;;;2.00;0.80;;;12.80;99.90;;;;;;5032650;28;20182;-74
2022/11/07 00:03:59;;;;;;;4.13;0.90;;;12.80;99.90;;;;;;5032500;28;20630;-74
2022/11/07 00:06:24;;;;;;;2.10;0.70;;;12.80;99.90;;;;;;5032551;28;20569;-74
2022/11/07 00:08:52;;;;;;;1.50;0.70;;;12.70;99.90;;;;;;5015057;28;20165;-73
2022/11/07 00:11:18;;;;;;;1.30;0.60;;;12.70;99.90;;;;;;5032519;28;20272;-73
2022/11/07 00:13:44;;;;;;;1.60;0.85;;;12.80;99.90;;;;;;5015029;28;20181;-74
2022/11/07 00:16:10;;;;;;;1.30;0.60;;;12.70;99.90;;;;;;5032393;28;20198;-74
2022/11/07 00:18:37;;;;;;;1.50;0.70;;;12.70;99.90;;;;;;5031360;28;20171;-74
2022/11/07 00:21:04;;;;;;;1.40;0.60;;;12.70;99.90;;;;;;5032166;28;20177;-73
2022/11/07 00:23:30;;;;;;;2.60;0.60;;;12.80;99.90;;;;;;5030888;28;20660;-74
2022/11/07 00:26:08;;;;;;;1.90;0.57;;;12.80;99.90;;;;;;5032439;28;20568;-74
2022/11/07 00:28:40;;;;;;;1.73;0.70;;;12.70;99.90;;;;;;5032522;28;21166;-74
2022/11/07 00:31:07;;;;;;;2.05;0.80;;;12.80;99.90;;;;;;5032136;28;20224;-73
2022/11/07 00:33:33;;;;;;;1.35;0.65;;;12.70;99.90;;;;;;5031873;28;20599;-74
2022/11/07 00:35:59;;;;;;;4.70;0.60;;;12.70;99.90;;;;;;5030935;28;20198;-74
2022/11/07 00:38:25;;;;;;;3.28;0.70;;;12.70;99.90;;;;;;5014275;28;20174;-74
2022/11/07 00:40:59;;;;;;;1.30;0.65;;;12.70;99.90;;;;;;5032144;28;20184;-74
2022/11/07 00:43:25;;;;;;;1.58;0.70;;;12.70;99.90;;;;;;5031613;28;20165;-74
2022/11/07 00:45:51;;;;;;;1.55;0.70;;;12.60;99.90;;;;;;5032256;28;20260;-74
2022/11/07 00:48:17;;;;;;;1.50;0.70;;;12.60;99.90;;;;;;5032013;28;20162;-73
2022/11/07 00:50:43;;;;;;;1.20;0.50;;;12.60;99.90;;;;;;5031744;28;20251;-74
2022/11/07 00:53:09;;;;;;;1.37;0.70;;;12.60;99.90;;;;;;5026001;28;20212;-73
2022/11/07 00:55:35;;;;;;;1.63;0.70;;;12.60;99.90;;;;;;5051768;28;20288;-73
2022/11/07 00:58:01;;;;;;;1.50;0.70;;;12.60;99.90;;;;;;5051756;28;20172;-74
2022/11/07 01:00:26;;;;;;;1.77;0.70;;;12.70;99.90;;;;;;5051675;28;20165;-74
2022/11/07 01:05:37;;;;;;;2.53;1.10;;;12.70;99.90;;;;;;5033789;28;20235;-74
2022/11/07 01:08:04;;;;;;;2.40;0.60;;;12.70;99.90;;;;;;5042230;28;20174;-74
2022/11/07 01:10:30;;;;;;;1.50;0.60;;;12.80;99.90;;;;;;5031486;28;20161;-74
2022/11/07 01:12:55;;;;;;;2.53;0.63;;;12.80;99.90;;;;;;5031501;28;20161;-74
2022/11/07 01:15:21;;;;;;;1.87;0.70;;;12.80;99.90;;;;;;5031596;28;20162;-74
2022/11/07 01:17:47;;;;;;;1.57;0.60;;;12.90;99.90;;;;;;5031648;28;20715;-74
2022/11/07 01:20:13;;;;;;;3.13;0.70;;;12.90;99.90;;;;;;5031712;28;20162;-74
2022/11/07 01:22:38;;;;;;;1.53;0.70;;;13.00;99.90;;;;;;5031179;28;20200;-73
2022/11/07 01:25:04;;;;;;;1.50;0.60;;;13.00;99.90;;;;;;5031690;28;20575;-73
2022/11/07 01:27:30;;;;;;;1.45;0.60;;;13.00;99.90;;;;;;5030439;28;20174;-74
2022/11/07 01:29:56;;;;;;;1.73;0.53;;;13.10;99.90;;;;;;5031616;28;20666;-74
2022/11/07 01:32:22;;;;;;;1.47;0.60;;;13.20;99.90;;;;;;5031015;28;20197;-74
2022/11/07 01:34:47;;;;;;;1.93;0.60;;;13.20;99.90;;;;;;5030274;28;20231;-73
2022/11/07 01:37:13;;;;;;;1.83;0.50;;;13.20;99.90;;;;;;5046779;28;20624;-73
2022/11/07 01:39:39;;;;;;;1.40;0.60;;;13.30;99.90;;;;;;5030556;28;20173;-73
2022/11/07 01:42:05;;;;;;;1.87;0.83;;;13.30;99.90;;;;;;5030866;28;20649;-73
2022/11/07 01:44:30;;;;;;;2.07;0.60;;;13.30;99.90;;;;;;5031445;28;20174;-73
2022/11/07 01:46:58;;;;;;;1.97;0.70;;;13.30;99.90;;;;;;5031335;28;20569;-73
2022/11/07 01:49:31;;;;;;;1.98;0.70;;;13.30;99.90;;;;;;5033513;28;20181;-74
2022/11/07 01:52:27;;;;;;;2.38;0.70;;;13.30;99.90;;;;;;5033762;28;20549;-74
2022/11/07 01:55:13;;;;;;;2.00;0.80;;;13.30;99.90;;;;;;5035368;28;20673;-73
2022/11/07 01:57:52;;;;;;;1.55;0.63;;;13.30;99.90;;;;;;5035370;28;20200;-74
2022/11/07 02:00:21;;;;;;;2.45;0.80;;;13.20;99.90;;;;;;5033748;28;20285;-73
2022/11/07 02:02:50;;;;;;;2.53;0.80;;;13.20;99.90;;;;;;5034581;28;20211;-73
2022/11/07 02:05:23;;;;;;;2.50;0.80;;;13.20;99.90;;;;;;5034802;28;20176;-74
2022/11/07 02:07:49;;;;;;;1.85;0.80;;;13.20;99.90;;;;;;5035080;28;20169;-74
2022/11/07 02:10:15;;;;;;;1.80;0.70;;;13.10;99.90;;;;;;5034944;28;20174;-74
2022/11/07 02:12:42;;;;;;;2.22;0.70;;;13.10;99.90;;;;;;5034521;28;20603;-74
2022/11/07 02:15:09;;;;;;;1.65;0.77;;;13.10;99.90;;;;;;5035083;28;20169;-74
2022/11/07 02:17:35;;;;;;;3.17;0.75;;;13.10;99.90;;;;;;5034646;28;20603;-74
2022/11/07 02:20:00;;;;;;;2.23;0.70;;;13.10;99.90;;;;;;5034888;28;20251;-74
2022/11/07 02:22:52;;;;;;;1.30;0.60;;;13.00;99.90;;;;;;5034270;28;21185;-74
2022/11/07 02:25:19;;;;;;;2.00;0.77;;;13.10;99.90;;;;;;5034835;28;20177;-74
2022/11/07 02:27:48;;;;;;;1.50;0.70;;;13.10;99.90;;;;;;5034571;28;20174;-74
2022/11/07 02:30:17;;;;;;;2.67;0.80;;;13.00;99.90;;;;;;5034548;28;20508;-74
2022/11/07 02:32:43;;;;;;;1.85;0.90;;;13.00;99.90;;;;;;5034127;28;20305;-74
2022/11/07 02:35:42;;;;;;;2.20;0.80;;;13.00;99.90;;;;;;5034581;28;20169;-74
2022/11/07 02:38:19;;;;;;;1.30;0.60;;;12.90;99.90;;;;;;5034504;28;21154;-74
2022/11/07 02:40:50;;;;;;;3.58;1.10;;;12.90;99.90;;;;;;5034321;28;20629;-74
2022/11/07 02:43:19;;;;;;;1.63;0.80;;;12.90;99.90;;;;;;5034211;28;20629;-74
2022/11/07 02:45:46;;;;;;;1.65;0.70;;;12.90;99.90;;;;;;5034286;28;20208;-74
2022/11/07 02:48:12;;;;;;;2.08;0.80;;;12.90;99.90;;;;;;5034043;28;20173;-74
2022/11/07 02:50:39;;;;;;;1.67;0.70;;;12.80;99.90;;;;;;5034277;28;20176;-74
2022/11/07 02:53:05;;;;;;;1.88;0.90;;;12.80;99.90;;;;;;5033660;28;20204;-74
2022/11/07 02:55:30;;;;;;;4.23;0.90;;;12.70;99.90;;;;;;5034105;28;20177;-74
2022/11/07 02:57:56;;;;;;;3.30;1.10;;;12.80;99.90;;;;;;5032795;28;20166;-74
2022/11/07 03:00:22;;;;;;;2.73;1.30;;;12.70;99.90;;;;;;5031178;28;20350;-74
2022/11/07 03:02:48;;;;;;;1.57;0.70;;;12.70;99.90;;;;;;5015637;28;20590;-74
2022/11/07 03:05:19;;;;;;;1.70;0.83;;;12.70;99.90;;;;;;5033938;28;20571;-74
2022/11/07 03:07:46;;;;;;;3.10;0.90;;;12.70;99.90;;;;;;5033781;28;20584;-74
2022/11/07 03:10:13;;;;;;;1.92;0.85;;;12.70;99.90;;;;;;5016017;28;20173;-74
2022/11/07 03:12:39;;;;;;;2.22;0.80;;;12.70;99.90;;;;;;5033320;28;20196;-74
2022/11/07 03:15:07;;;;;;;5.00;0.90;;;12.70;99.90;;;;;;5032565;28;20690;-74
2022/11/07 03:17:33;;;;;;;2.42;1.00;;;12.70;99.90;;;;;;5033555;28;20663;-74
2022/11/07 03:19:59;;;;;;;3.20;0.90;;;12.70;99.90;;;;;;5033770;28;20558;-74
2022/11/07 03:22:25;;;;;;;4.43;0.80;;;12.70;99.90;;;;;;5033021;28;20592;-74
2022/11/07 03:24:51;;;;;;;3.28;0.93;;;12.70;99.90;;;;;;5033679;28;20634;-74
2022/11/07 03:27:17;;;;;;;2.70;0.80;;;12.70;99.90;;;;;;5016058;28;20173;-74
2022/11/07 03:29:43;;;;;;;5.07;1.27;;;12.70;99.90;;;;;;5033393;28;20563;-74
2022/11/07 03:32:09;;;;;;;4.23;0.90;;;12.70;99.90;;;;;;5033055;28;20194;-74
2022/11/07 03:34:35;;;;;;;2.93;1.07;;;12.70;99.90;;;;;;5033462;28;20181;-74
2022/11/07 03:37:00;;;;;;;3.40;0.90;;;12.70;99.90;;;;;;5033236;28;20620;-74
2022/11/07 03:39:26;;;;;;;2.03;0.80;;;12.70;99.90;;;;;;5032066;28;20170;-74
2022/11/07 03:41:52;;;;;;;2.93;0.83;;;12.70;99.90;;;;;;5053974;23;20220;-86
2022/11/07 03:44:18;;;;;;;2.07;0.90;;;12.70;99.90;;;;;;5029379;28;20169;-86
2022/11/07 03:46:43;;;;;;;3.93;0.97;;;12.70;99.90;;;;;;5019376;28;20169;-87
2022/11/07 03:49:09;;;;;;;2.77;0.80;;;12.70;99.90;;;;;;5035473;28;20173;-87
2022/11/07 03:51:35;;;;;;;4.43;1.30;;;12.70;99.90;;;;;;5035455;28;20189;-87
2022/11/07 03:54:01;;;;;;;4.00;0.90;;;12.60;99.90;;;;;;5052135;28;20211;-87
2022/11/07 03:56:26;;;;;;;3.23;1.00;;;12.60;99.90;;;;;;5058559;28;20559;-87
2022/11/07 03:58:52;;;;;;;3.93;1.07;;;12.70;99.90;;;;;;5035403;28;20584;-87
2022/11/07 04:01:18;;;;;;;2.87;1.00;;;12.60;99.90;;;;;;5035332;28;20181;-87
2022/11/07 04:03:44;;;;;;;5.27;1.03;;;12.70;99.90;;;;;;5053082;28;20177;-87
2022/11/07 04:06:09;;;;;;;4.57;0.90;;;12.60;99.90;;;;;;5053294;28;20733;-87
2022/11/07 04:08:35;;;;;;;2.43;0.80;;;12.70;99.90;;;;;;5054360;28;20196;-87
2022/11/07 04:11:01;;;;;;;2.40;0.90;;;12.70;99.90;;;;;;5052862;28;20243;-87
2022/11/07 04:18:57;;;;;;;8.48;0.85;;;12.70;99.90;;;;;;5053373;28;20169;-86
2022/11/07 04:21:23;;;;;;;3.20;0.90;;;12.70;99.90;;;;;;5051653;28;20185;-88
2022/11/07 04:23:49;;;;;;;3.80;1.10;;;12.70;99.90;;;;;;5051649;28;20172;-88
2022/11/07 04:28:59;;;;;;;4.15;0.90;;;12.80;99.90;;;;;;5049947;28;20904;-88
2022/11/07 04:31:25;;;;;;;2.60;1.00;;;12.80;99.90;;;;;;5031690;28;20276;-88
2022/11/07 04:33:51;;;;;;;4.70;1.00;;;12.80;99.90;;;;;;5033044;28;20229;-88
2022/11/07 04:36:17;;;;;;;4.50;1.33;;;12.80;99.90;;;;;;5017885;28;20225;-88
2022/11/07 04:38:43;;;;;;;3.00;1.23;;;12.80;99.90;;;;;;5033458;28;20569;-88
2022/11/07 04:41:19;;;;;;;4.17;0.90;;;12.80;99.90;;;;;;5033305;28;20204;-87
2022/11/07 04:43:45;;;;;;;2.75;1.02;;;12.80;99.90;;;;;;5032735;28;20584;-87
2022/11/07 04:46:11;;;;;;;2.05;0.80;;;12.80;99.90;;;;;;5031366;28;20185;-87
2022/11/07 04:48:36;;;;;;;3.30;0.90;;;12.80;99.90;;;;;;5032539;28;20169;-87
2022/11/07 04:51:02;;;;;;;3.60;1.30;;;12.80;99.90;;;;;;5014751;28;20255;-87
2022/11/07 04:53:28;;;;;;;4.57;1.10;;;12.80;99.90;;;;;;5032514;28;20170;-88
2022/11/07 04:55:54;;;;;;;3.00;1.37;;;12.80;99.90;;;;;;5032555;28;20284;-88
2022/11/07 04:58:19;;;;;;;4.97;1.37;;;12.80;99.90;;;;;;5033783;28;20599;-88
2022/11/07 05:00:45;;;;;;;2.50;1.07;;;12.80;99.90;;;;;;5015059;28;20230;-87
2022/11/07 05:03:11;;;;;;;4.50;0.97;;;12.80;99.90;;;;;;5033528;28;20170;-87
2022/11/07 05:05:36;;;;;;;3.77;1.00;;;12.70;99.90;;;;;;5016086;28;20185;-85
2022/11/07 05:08:03;;;;;;;3.63;0.80;;;12.80;99.90;;;;;;5015789;28;20180;-84
2022/11/07 05:10:29;;;;;;;2.67;0.90;;;12.70;99.90;;;;;;5039662;28;20249;-85
2022/11/07 05:12:55;;;;;;;2.73;0.80;;;12.70;99.90;;;;;;5036620;28;20576;-85
2022/11/07 05:15:21;;;;;;;4.13;1.23;;;12.80;99.90;;;;;;5032479;28;20659;-84
2022/11/07 05:17:47;;;;;;;5.00;0.95;;;12.70;99.90;;;;;;5033147;28;20223;-85
2022/11/07 05:20:26;;;;;;;6.13;1.17;;;12.70;99.90;;;;;;5038299;28;20177;-85
2022/11/07 05:25:37;;;;;;;5.63;1.00;;;12.70;99.90;;;;;;5047078;28;20217;-85
2022/11/07 05:28:02;;;;;;;5.63;1.00;;;12.80;99.90;;;;;;5033313;28;20181;-84
2022/11/07 05:30:28;;;;;;;3.47;1.07;;;12.80;99.90;;;;;;5011706;28;20186;-84
2022/11/07 05:32:54;;;;;;;1.50;0.80;;;12.80;99.90;;;;;;5031702;28;20588;-84
2022/11/07 05:35:20;;;;;;;2.67;0.93;;;12.80;99.90;;;;;;5034202;28;20510;-84
2022/11/07 05:37:47;;;;;;;2.90;1.00;;;12.80;99.90;;;;;;5034310;28;20209;-85
2022/11/07 05:40:13;;;;;;;2.78;0.90;;;12.80;99.90;;;;;;5031716;28;20177;-84
2022/11/07 05:42:39;;;;;;;6.43;1.05;;;12.80;99.90;;;;;;5050897;28;20196;-85
2022/11/07 05:45:05;;;;;;;3.73;0.90;;;12.80;99.90;;;;;;5052249;28;20581;-85
2022/11/07 05:47:31;;;;;;;3.80;0.80;;;12.80;99.90;;;;;;5056601;28;20196;-83
2022/11/07 05:49:57;;;;;;;2.80;0.90;;;12.90;99.90;;;;;;5051607;28;20173;-84
2022/11/07 05:52:22;;;;;;;3.97;1.20;;;12.90;99.90;;;;;;5049915;28;20203;-84
2022/11/07 05:54:48;;;;;;;3.23;0.83;;;12.90;99.90;;;;;;5052565;28;20638;-84
2022/11/07 05:57:14;;;;;;;7.27;1.30;;;12.90;99.90;;;;;;5058409;28;20658;-84
2022/11/07 05:59:40;;;;;;;5.83;1.10;;;13.00;99.90;;;;;;5050457;28;20648;-83
2022/11/07 06:02:05;;;;;;;4.30;1.83;;;13.00;99.90;;;;;;5050942;28;20181;-83
2022/11/07 06:04:31;;;;;;;5.10;1.00;;;13.00;99.90;;;;;;5050116;28;20166;-83
2022/11/07 06:06:57;;;;;;;5.33;0.87;;;13.00;99.90;;;;;;5051342;28;20700;-83
2022/11/07 06:09:23;;;;;;;4.60;1.03;;;13.10;99.90;;;;;;5033615;28;20633;-83
2022/11/07 06:11:48;;;;;;;4.80;0.90;;;13.20;99.90;;;;;;5049609;28;20181;-83
2022/11/07 06:14:14;;;;;;;2.97;0.90;;;13.20;99.90;;;;;;5050953;28;20161;-83
2022/11/07 06:16:40;;;;;;;2.40;0.80;;;13.30;99.90;;;;;;5049924;28;20250;-83
2022/11/07 06:19:05;;;;;;;4.20;0.90;;;13.30;99.90;;;;;;5049799;28;20169;-83
2022/11/07 06:21:33;;;;;;;2.87;0.80;;;13.40;99.90;;;;;;5049801;28;20189;-84
2022/11/07 06:23:58;;;;;;;3.43;0.90;;;13.40;99.90;;;;;;5050008;28;20275;-83
2022/11/07 06:26:25;;;;;;;3.10;1.07;;;13.50;99.90;;;;;;5054657;28;21111;-83
2022/11/07 06:28:51;;;;;;;6.57;0.93;;;13.50;99.90;;;;;;5033397;28;20173;-83
2022/11/07 06:31:17;;;;;;;3.10;1.00;;;13.60;99.90;;;;;;5049871;28;20652;-83
2022/11/07 06:33:43;;;;;;;3.53;0.80;;;13.70;99.90;;;;;;5049857;28;20172;-83
2022/11/07 06:36:11;;;;;;;5.10;1.17;;;13.70;99.90;;;;;;5035951;28;20192;-82
2022/11/07 06:38:38;;;;;;;3.97;1.13;;;13.80;99.90;;;;;;5054957;28;20165;-83
2022/11/07 06:41:06;;;;;;;4.05;0.88;;;13.80;99.90;;;;;;5047436;28;20214;-82
2022/11/07 06:43:32;;;;;;;2.95;0.90;;;13.90;99.90;;;;;;5017041;28;20599;-82
2022/11/07 06:46:01;;;;;;;3.17;1.20;;;14.00;99.90;;;;;;5034851;28;20208;-82
2022/11/07 06:48:27;;;;;;;2.10;0.80;;;14.00;99.90;;;;;;5033404;28;20608;-82
2022/11/07 06:51:00;;;;;;;4.77;1.43;;;14.10;99.90;;;;;;5032961;28;20598;-82
2022/11/07 06:53:27;;;;;;;3.20;0.80;;;14.10;99.90;;;;;;5032913;28;20170;-83
2022/11/07 06:55:53;;;;;;;4.70;0.90;;;14.20;99.90;;;;;;5034469;28;20204;-82
2022/11/07 06:58:20;;;;;;;3.30;0.93;;;14.30;99.90;;;;;;5035023;28;20568;-82
2022/11/07 07:00:46;;;;;;;3.30;0.80;;;14.30;99.90;;;;;;5013026;28;20745;-81
2022/11/07 07:03:12;;;;;;;4.20;0.80;;;14.40;99.90;;;;;;5035630;28;20600;-82
2022/11/07 07:05:38;;;;;;;2.17;0.80;;;14.40;99.90;;;;;;5029722;28;20189;-82
2022/11/07 07:08:05;;;;;;;4.67;1.53;;;14.40;99.90;;;;;;5048638;28;20588;-84
2022/11/07 07:10:35;;;;;;;4.40;0.97;;;14.50;99.90;;;;;;5038586;28;20719;-83
2022/11/07 07:13:01;;;;;;;4.47;0.90;;;14.60;99.90;;;;;;5032045;28;20588;-82
2022/11/07 07:15:27;;;;;;;3.67;1.30;;;14.60;99.90;;;;;;5031753;28;20581;-84
2022/11/07 07:17:53;;;;;;;3.20;0.80;;;14.70;99.90;;;;;;5016244;28;20175;-83
2022/11/07 07:20:19;;;;;;;3.10;0.90;;;14.70;99.90;;;;;;4995411;28;20617;-82
2022/11/07 07:22:45;;;;;;;3.93;1.00;;;14.80;99.90;;;;;;4978997;28;20596;-81
2022/11/07 07:25:11;;;;;;;5.80;0.90;;;14.80;99.90;;;;;;5012018;28;20590;-79
2022/11/07 07:27:37;;;;;;;5.20;1.40;;;14.80;99.90;;;;;;4978619;28;20759;-86
2022/11/07 07:30:03;;;;;;;4.70;0.87;;;14.80;99.90;;;;;;5013298;28;20272;-83
2022/11/07 07:32:29;;;;;;;6.93;1.60;;;14.90;99.90;;;;;;5012235;28;20185;-86
2022/11/07 07:34:55;;;;;;;3.10;0.90;;;15.00;99.90;;;;;;5030789;28;20588;-84
2022/11/07 07:37:20;;;;;;;2.63;0.90;;;15.10;99.90;;;;;;5014556;28;20561;-84
2022/11/07 07:39:46;;;;;;;3.50;0.90;;;15.20;99.90;;;;;;5036384;28;20231;-84
2022/11/07 07:42:12;;;;;;;3.83;0.90;;;15.30;99.90;;;;;;5029134;28;20543;-84
2022/11/07 07:44:38;;;;;;;3.53;1.17;;;15.40;99.90;;;;;;5031812;28;20166;-84
2022/11/07 07:47:03;;;;;;;4.90;0.80;;;15.50;99.90;;;;;;5030913;28;20170;-83
2022/11/07 07:49:29;;;;;;;3.70;1.10;;;15.60;99.90;;;;;;5031792;28;20240;-84
2022/11/07 07:51:55;;;;;;;4.70;1.10;;;15.70;99.90;;;;;;5031549;28;20201;-84
2022/11/07 07:54:21;;;;;;;5.10;2.97;;;15.70;99.90;;;;;;5048264;28;20169;-83
2022/11/07 07:56:46;;;;;;;3.80;1.07;;;15.70;99.90;;;;;;5031281;28;20201;-83
2022/11/07 07:59:12;;;;;;;3.27;1.00;;;15.70;99.90;;;;;;5048030;28;20591;-83
2022/11/07 08:01:38;;;;;;;3.20;0.90;;;15.70;99.90;;;;;;5032528;28;20193;-84
2022/11/07 08:04:04;;;;;;;3.57;0.90;;;15.80;99.90;;;;;;5031400;28;20170;-83
2022/11/07 08:06:31;;;;;;;3.73;1.00;;;15.90;99.90;;;;;;5048428;28;20242;-84
2022/11/07 08:08:57;;;;;;;3.97;0.90;;;15.90;99.90;;;;;;5048183;28;20177;-84
2022/11/07 08:11:23;;;;;;;5.73;1.33;;;15.90;99.90;;;;;;5046090;28;20675;-83
2022/11/07 08:13:48;;;;;;;2.77;1.17;;;16.00;99.90;;;;;;5032610;28;20662;-84
2022/11/07 08:16:14;;;;;;;6.30;0.90;;;16.00;99.90;;;;;;5036940;28;20251;-84
2022/11/07 08:18:40;;;;;;;3.27;0.87;;;16.00;99.90;;;;;;5033600;28;20169;-84
2022/11/07 08:21:06;;;;;;;2.33;0.70;;;16.00;99.90;;;;;;5032161;28;20662;-84
2022/11/07 08:23:32;;;;;;;3.47;1.00;;;16.10;99.90;;;;;;5033558;28;20694;-84
2022/11/07 08:26:00;;;;;;;2.33;0.80;;;16.10;99.90;;;;;;5033535;28;21111;-84
2022/11/07 08:28:28;;;;;;;2.43;0.70;;;16.10;99.90;;;;;;5032728;28;20261;-83
2022/11/07 08:31:10;;;;;;;4.07;0.90;;;16.10;99.90;;;;;;5032192;28;20646;-84
2022/11/07 08:33:37;;;;;;;4.23;0.70;;;16.00;99.90;;;;;;5031119;28;20577;-84
2022/11/07 08:36:05;;;;;;;3.63;0.80;;;16.10;99.90;;;;;;5032406;28;20639;-83
2022/11/07 08:38:33;;;;;;;1.90;0.70;;;16.10;99.90;;;;;;5047448;28;21361;-84
2022/11/07 08:40:58;;;;;;;3.10;0.90;;;16.10;99.90;;;;;;5031994;28;20623;-84
2022/11/07 08:43:24;;;;;;;2.33;0.73;;;16.10;99.90;;;;;;5031723;28;20578;-84
2022/11/07 08:45:52;;;;;;;3.53;0.90;;;16.20;99.90;;;;;;5014316;28;20980;-83
2022/11/07 08:48:18;;;;;;;2.73;0.70;;;16.20;99.90;;;;;;5032229;28;20732;-83
2022/11/07 08:50:49;;;;;;;5.00;1.00;;;16.30;99.90;;;;;;5032222;28;20694;-84
2022/11/07 08:53:15;;;;;;;2.67;0.80;;;16.30;99.90;;;;;;5038534;28;21181;-83
2022/11/07 08:55:41;;;;;;;3.40;0.90;;;16.40;99.90;;;;;;5032346;28;20580;-84
2022/11/07 08:58:07;;;;;;;3.33;0.70;;;16.40;99.90;;;;;;5032142;28;20572;-84
2022/11/07 09:00:34;;;;;;;2.20;0.80;;;16.40;99.90;;;;;;5032924;28;20186;-84
2022/11/07 09:03:05;;;;;;;2.20;0.80;;;16.50;99.90;;;;;;5050606;28;21005;-83
2022/11/07 09:05:31;;;;;;;2.03;0.83;;;16.60;99.90;;;;;;5051701;28;21192;-84
2022/11/07 09:07:57;;;;;;;1.60;0.60;;;16.60;99.90;;;;;;5051480;28;20583;-84
2022/11/07 09:10:23;;;;;;;2.07;0.70;;;16.70;99.90;;;;;;5017391;28;20711;-84
2022/11/07 09:12:50;;;;;;;1.80;0.60;;;16.70;99.90;;;;;;5050933;28;20592;-84
2022/11/07 09:15:17;;;;;;;4.03;0.80;;;16.80;99.90;;;;;;5033767;28;21179;-84
2022/11/07 09:17:45;;;;;;;3.40;0.70;;;16.90;99.90;;;;;;5033662;28;20618;-84
2022/11/07 09:20:12;;;;;;;1.87;0.67;;;16.90;99.90;;;;;;5051669;28;20634;-84
2022/11/07 09:22:39;;;;;;;1.77;0.70;;;17.00;99.90;;;;;;5030342;28;20718;-84
2022/11/07 09:25:05;;;;;;;2.47;0.73;;;17.00;99.90;;;;;;4994372;28;20676;-84
2022/11/07 09:27:31;;;;;;;2.17;0.80;;;17.10;99.90;;;;;;5011693;28;21195;-83
2022/11/07 09:29:56;;;;;;;1.47;0.70;;;17.20;99.90;;;;;;5014110;28;20648;-83
2022/11/07 09:32:22;;;;;;;5.63;0.90;;;17.20;99.90;;;;;;5014096;28;20197;-84
2022/11/07 09:34:48;;;;;;;2.13;0.80;;;17.30;99.90;;;;;;5022098;28;20280;-83
2022/11/07 09:37:14;;;;;;;2.57;0.90;;;17.30;99.90;;;;;;5030306;28;20227;-84
2022/11/07 09:39:40;;;;;;;2.87;0.87;;;17.40;99.90;;;;;;5030195;28;20162;-82
2022/11/07 09:42:35;;;;;;;3.70;0.70;;;17.50;99.90;;;;;;5030183;28;20288;-83
2022/11/07 09:45:01;;;;;;;4.67;0.77;;;17.50;99.90;;;;;;5030079;28;20619;-81
2022/11/07 09:47:39;;;;;;;1.93;0.70;;;17.60;99.90;;;;;;5030974;28;20583;-84
2022/11/07 09:50:22;;;;;;;3.10;0.80;;;17.70;99.90;;;;;;5030900;28;20576;-82
2022/11/07 09:53:07;;;;;;;2.60;0.73;;;17.70;99.90;;;;;;5013361;28;20929;-82
2022/11/07 09:55:36;;;;;;;14.80;1.20;;;17.70;99.90;;;;;;5030120;28;20638;-84
2022/11/07 09:58:18;;;;;;;3.37;1.73;;;17.80;99.90;;;;;;5031392;28;20581;-83
2022/11/07 10:00:44;;;;;;;4.03;1.00;;;17.80;99.90;;;;;;5035067;28;20633;-81
2022/11/07 10:03:10;;;;;;;4.43;1.00;;;17.80;99.90;;;;;;5051532;28;20567;-83
2022/11/07 10:05:57;;;;;;;7.07;1.37;;;17.80;99.90;;;;;;5032890;28;20595;-83
2022/11/07 10:08:31;;;;;;;4.20;1.27;;;17.80;99.90;;;;;;5067080;28;20219;-82
2022/11/07 10:11:07;;;;;;;2.17;0.73;;;17.80;99.90;;;;;;5059967;28;20626;-82
2022/11/07 10:13:58;;;;;;;4.00;0.90;;;17.80;99.90;;;;;;5038804;28;20562;-81
2022/11/07 10:16:46;;;;;;;7.10;1.30;;;17.80;99.90;;;;;;5054222;28;20614;-83
2022/11/07 10:19:38;;;;;;;4.20;0.90;;;17.90;99.90;;;;;;5027203;28;20588;-82
2022/11/07 10:22:53;;;;;;;2.73;0.67;;;17.90;99.90;;;;;;5036019;28;20605;-83
2022/11/07 10:25:48;;;;;;;6.77;1.00;;;17.90;99.90;;;;;;5033339;28;20561;-82
2022/11/07 10:28:17;;;;;;;1.70;0.70;;;17.90;99.90;;;;;;5033281;28;20638;-83
2022/11/07 10:30:54;;;;;;;3.20;0.87;;;18.00;99.90;;;;;;5024461;28;21151;-81
2022/11/07 10:33:41;;;;;;;3.53;0.90;;;18.10;99.90;;;;;;5032397;28;20584;-83
2022/11/07 10:36:25;;;;;;;1.97;0.80;;;18.10;99.90;;;;;;5033901;28;20669;-82
2022/11/07 10:38:51;;;;;;;5.53;1.10;;;18.20;99.90;;;;;;5033198;28;20671;-82
2022/11/07 10:41:21;;;;;;;5.07;1.03;;;18.30;99.90;;;;;;5047716;28;20998;-82
2022/11/07 10:44:03;;;;;;;4.03;0.90;;;18.30;99.90;;;;;;5049098;28;20578;-85
2022/11/07 10:46:35;;;;;;;3.33;0.90;;;18.40;99.90;;;;;;5056772;28;20598;-85
2022/11/07 10:49:03;;;;;;;2.70;0.83;;;18.50;99.90;;;;;;5035739;28;20600;-83
2022/11/07 10:51:36;;;;;;;2.30;0.80;;;18.70;99.90;;;;;;5053544;28;20603;-84
2022/11/07 10:54:04;;;;;;;4.37;0.70;;;18.90;99.90;;;;;;5053496;28;20570;-83
2022/11/07 10:56:30;;;;;;;2.47;1.00;;;19.00;99.90;;;;;;5035722;28;20726;-84
2022/11/07 10:58:57;;;;;;;3.57;1.00;;;19.20;99.90;;;;;;5053805;28;20654;-84
2022/11/07 11:01:26;;;;;;;3.77;0.77;;;19.30;99.90;;;;;;5053777;28;20594;-84
2022/11/07 11:03:52;;;;;;;3.13;0.90;;;19.50;99.90;;;;;;5018990;28;20578;-83
2022/11/07 11:06:18;;;;;;;4.03;0.83;;;19.50;99.90;;;;;;5053635;28;20935;-82
2022/11/07 11:08:49;;;;;;;3.93;0.73;;;19.50;99.90;;;;;;5052030;28;20579;-82
2022/11/07 11:11:25;;;;;;;2.33;0.73;;;19.50;99.90;;;;;;5046318;28;20200;-82
2022/11/07 11:14:01;;;;;;;2.90;0.70;;;19.50;99.90;;;;;;5051979;28;20579;-84
2022/11/07 11:16:29;;;;;;;2.10;0.70;;;19.50;99.90;;;;;;5053342;28;20627;-83
2022/11/07 11:18:59;;;;;;;2.07;0.70;;;19.50;99.90;;;;;;5052452;28;20557;-84
2022/11/07 11:21:38;;;;;;;2.10;0.70;;;19.50;99.90;;;;;;5055892;28;20596;-84
2022/11/07 11:24:18;;;;;;;1.83;0.60;;;19.40;99.90;;;;;;5052156;28;20612;-81
2022/11/07 11:26:47;;;;;;;5.03;0.60;;;19.30;99.90;;;;;;5068565;28;20666;-80
2022/11/07 11:29:25;;;;;;;1.60;0.50;;;19.30;99.90;;;;;;5052356;28;20564;-80
2022/11/07 11:31:54;;;;;;;2.90;0.70;;;19.20;99.90;;;;;;5067864;28;20606;-77
2022/11/07 11:34:50;;;;;;;2.50;0.60;;;19.20;99.90;;;;;;5035374;28;20568;-79
2022/11/07 11:37:21;;;;;;;1.40;0.50;;;19.10;99.90;;;;;;5053085;28;20643;-79
2022/11/07 11:39:59;;;;;;;1.97;0.60;;;19.10;99.90;;;;;;5053244;28;20617;-78
2022/11/07 11:42:24;;;;;;;1.60;0.60;;;19.10;99.90;;;;;;5032142;28;20619;-78
2022/11/07 11:44:53;;;;;;;2.00;0.70;;;19.20;99.90;;;;;;5048747;28;21349;-77
2022/11/07 11:47:34;;;;;;;1.30;0.50;;;19.20;99.90;;;;;;5048194;28;20593;-77
2022/11/07 11:50:23;;;;;;;1.47;0.57;;;19.20;99.90;;;;;;5033801;28;20603;-79
2022/11/07 11:52:49;;;;;;;2.90;0.90;;;19.30;99.90;;;;;;5030650;28;20576;-78
2022/11/07 11:55:18;;;;;;;1.97;0.70;;;19.30;99.90;;;;;;5048767;28;20745;-80
2022/11/07 11:57:48;;;;;;;2.73;0.60;;;19.40;99.90;;;;;;5033244;28;20207;-81
2022/11/07 12:00:24;;;;;;;2.17;0.53;;;19.40;99.90;;;;;;5021600;28;20573;-78
2022/11/07 12:03:21;;;;;;;2.03;0.60;;;19.50;99.90;;;;;;5010254;28;20600;-80
2022/11/07 12:06:09;;;;;;;3.40;0.60;;;19.50;99.90;;;;;;5032091;28;20565;-80
2022/11/07 12:08:56;;;;;;;2.33;0.60;;;19.60;99.90;;;;;;5030447;28;20626;-79
2022/11/07 12:11:28;;;;;;;1.70;0.60;;;19.60;99.90;;;;;;5026979;28;20620;-81
2022/11/07 12:14:12;;;;;;;1.93;0.50;;;19.70;99.90;;;;;;5030857;28;20580;-79
2022/11/07 12:16:44;;;;;;;1.50;0.60;;;19.70;99.90;;;;;;5030782;28;20619;-79
2022/11/07 12:19:31;;;;;;;2.43;0.53;;;19.70;99.90;;;;;;5031016;28;20576;-83
2022/11/07 12:22:35;;;;;;;1.60;0.50;;;19.80;99.90;;;;;;5014539;28;20607;-83
2022/11/07 12:25:04;;;;;;;2.50;1.00;;;19.80;99.90;;;;;;5019714;28;20592;-80
2022/11/07 12:27:47;;;;;;;2.37;0.60;;;19.90;99.90;;;;;;5030785;28;20576;-80
2022/11/07 12:30:39;;;;;;;3.53;0.80;;;19.90;99.90;;;;;;5031745;28;20588;-80
2022/11/07 12:33:16;;;;;;;1.27;0.50;;;19.90;99.90;;;;;;5031291;28;20583;-79
2022/11/07 12:35:51;;;;;;;2.57;0.67;;;19.90;99.90;;;;;;5036503;28;21226;-82
2022/11/07 12:38:50;;;;;;;2.03;1.00;;;19.90;99.90;;;;;;5032331;28;20556;-80
2022/11/07 12:41:31;;;;;;;1.80;0.70;;;19.80;99.90;;;;;;5031723;28;21205;-80
2022/11/07 12:44:08;;;;;;;1.40;0.60;;;19.80;99.90;;;;;;5031733;28;21113;-81
2022/11/07 12:46:46;;;;;;;1.80;0.60;;;19.80;99.90;;;;;;5031695;28;20560;-81
2022/11/07 12:49:42;;;;;;;1.50;0.50;;;19.80;99.90;;;;;;5014314;28;20976;-81
2022/11/07 12:52:24;;;;;;;2.13;0.60;;;19.80;99.90;;;;;;5030984;28;20966;-81
2022/11/07 12:55:03;;;;;;;1.97;0.60;;;19.80;99.90;;;;;;5030743;28;20924;-83
2022/11/07 12:57:36;;;;;;;1.67;0.50;;;19.80;99.90;;;;;;5031108;28;20962;-82
2022/11/07 13:00:11;;;;;;;1.40;0.70;;;19.70;99.90;;;;;;5031654;28;20569;-81
2022/11/07 13:02:58;;;;;;;2.13;0.60;;;19.70;99.90;;;;;;5048874;28;20587;-81
2022/11/07 13:06:14;;;;;;;1.20;0.40;;;19.70;99.90;;;;;;5050410;28;21006;-82
2022/11/07 13:09:03;;;;;;;2.03;0.60;;;19.60;99.90;;;;;;4990148;28;20609;-84
2022/11/07 13:11:47;;;;;;;2.13;0.60;;;19.70;99.90;;;;;;4990326;28;20664;-83
2022/11/07 13:14:22;;;;;;;1.50;0.50;;;19.70;99.90;;;;;;5036267;28;20584;-79
2022/11/07 13:17:04;;;;;;;2.20;0.40;;;19.60;99.90;;;;;;5029762;28;21190;-79